Terminal Aerodrome Forecast
Issued by NWS

Home | Current Version | Previous Version | Graphics & Text | Print | Product List | Glossary On
Versions: 1 2 3 4 5 6 7 8 9 10 11 12 13 14 15 16 17 18 19 20
000
FTUS43 KICT 222329
TAFRSL
TAF
KRSL 222329Z 2300/2324 13011KT 5SM -DZ BR SCT005 OVC010
     FM230300 14008KT 3SM -DZ BR BKN008
     FM231200 14015KT 5SM -SHRA VCTS SCT006 OVC010CB=

USA.gov is the U.S. government's official web portal to all federal, state and local government web resources and services.